createdAt,value
2018-11-26T00:02:17.958Z,16.30
2018-11-26T00:04:45.412Z,14.10
2018-11-26T00:07:12.874Z,14.57
2018-11-26T00:09:41.913Z,15.23
2018-11-26T00:12:09.355Z,16.00
2018-11-26T00:14:37.905Z,16.03
2018-11-26T00:17:05.368Z,14.87
2018-11-26T00:19:32.829Z,15.53
2018-11-26T00:22:00.292Z,14.93
2018-11-26T00:24:27.762Z,17.50
2018-11-26T00:26:55.228Z,15.07
2018-11-26T00:29:22.680Z,13.93
2018-11-26T00:31:51.072Z,16.33
2018-11-26T00:34:18.620Z,15.27
2018-11-26T00:36:46.086Z,15.13
2018-11-26T00:39:13.557Z,14.20
2018-11-26T00:41:41.024Z,14.93
2018-11-26T00:44:08.488Z,16.57
2018-11-26T00:46:35.969Z,14.50
2018-11-26T00:49:04.982Z,15.60
2018-11-26T00:51:32.432Z,14.93
2018-11-26T00:53:59.888Z,15.03
2018-11-26T00:56:28.447Z,15.37
2018-11-26T00:58:55.898Z,16.03
2018-11-26T01:01:23.463Z,15.03
2018-11-26T01:03:51.027Z,16.03
2018-11-26T01:06:18.493Z,15.88
2018-11-26T01:08:45.943Z,15.53
2018-11-26T01:11:13.532Z,15.13
2018-11-26T01:13:41.007Z,16.00
2018-11-26T01:16:09.237Z,13.80
2018-11-26T01:18:36.736Z,15.83
2018-11-26T01:21:04.278Z,13.40
2018-11-26T01:23:31.746Z,15.53
2018-11-26T01:25:59.216Z,13.77
2018-11-26T01:28:26.682Z,14.33
2018-11-26T01:30:54.148Z,16.50
2018-11-26T01:33:22.381Z,13.47
2018-11-26T01:35:49.853Z,13.97
2018-11-26T01:38:17.309Z,16.60
2018-11-26T01:40:44.789Z,13.83
2018-11-26T01:43:12.245Z,14.57
2018-11-26T01:45:39.712Z,13.60
2018-11-26T01:48:07.270Z,14.30
2018-11-26T01:50:34.836Z,14.63
2018-11-26T01:53:02.311Z,13.00
2018-11-26T01:55:29.876Z,15.00
2018-11-26T01:57:57.347Z,14.27
2018-11-26T02:00:25.569Z,16.00
2018-11-26T02:02:53.037Z,15.40
2018-11-26T02:05:20.488Z,14.80
2018-11-26T02:07:47.992Z,13.90
2018-11-26T02:10:15.450Z,14.13
2018-11-26T02:12:42.916Z,14.23
2018-11-26T02:15:10.481Z,14.97
2018-11-26T02:17:37.960Z,14.63
2018-11-26T02:20:05.433Z,14.57
2018-11-26T02:22:32.886Z,14.57
2018-11-26T02:25:00.345Z,13.53
2018-11-26T02:27:27.896Z,13.97
2018-11-26T02:29:55.367Z,13.53
2018-11-26T02:32:22.835Z,14.13
2018-11-26T02:34:50.312Z,14.60
2018-11-26T02:37:18.536Z,13.97
2018-11-26T02:39:46.030Z,13.63
2018-11-26T02:42:14.271Z,11.23
2018-11-26T02:44:41.768Z,13.70
2018-11-26T02:47:09.253Z,12.53
2018-11-26T02:49:37.485Z,13.30
2018-11-26T02:52:04.957Z,12.40
2018-11-26T02:54:32.438Z,13.03
2018-11-26T02:56:59.994Z,13.10
2018-11-26T02:59:29.044Z,14.53
2018-11-26T03:01:56.515Z,12.97
2018-11-26T03:04:23.967Z,13.27
2018-11-26T03:06:51.452Z,12.00
2018-11-26T03:09:18.918Z,13.27
2018-11-26T03:11:46.378Z,12.90
2018-11-26T03:14:13.839Z,13.30
2018-11-26T03:16:41.333Z,13.43
2018-11-26T03:19:08.788Z,13.83
2018-11-26T03:21:36.253Z,14.07
2018-11-26T03:24:04.823Z,12.70
2018-11-26T03:26:32.275Z,13.53
2018-11-26T03:28:59.732Z,13.17
2018-11-26T03:31:27.213Z,14.07
2018-11-26T03:33:54.671Z,14.57
2018-11-26T03:36:22.138Z,12.70
2018-11-26T03:38:49.695Z,12.07
2018-11-26T03:41:17.260Z,12.87
2018-11-26T03:43:44.737Z,13.10
2018-11-26T03:46:13.010Z,12.27
2018-11-26T03:48:40.585Z,13.77
2018-11-26T03:51:09.568Z,11.77
2018-11-26T03:53:37.023Z,13.67
2018-11-26T03:56:04.495Z,13.53
2018-11-26T03:58:31.960Z,13.30
2018-11-26T04:00:59.447Z,11.60
2018-11-26T04:03:27.660Z,13.57
2018-11-26T04:05:55.136Z,13.17
2018-11-26T04:08:22.604Z,12.83
2018-11-26T04:10:50.080Z,13.50
2018-11-26T04:13:17.598Z,11.17
2018-11-26T04:15:45.067Z,13.00
2018-11-26T04:18:12.535Z,12.80
2018-11-26T04:20:39.998Z,13.47
2018-11-26T04:23:07.475Z,13.73
2018-11-26T04:25:35.270Z,12.20
2018-11-26T04:28:03.756Z,12.20
2018-11-26T04:30:31.225Z,13.07
2018-11-26T04:32:58.692Z,13.30
2018-11-26T04:35:26.962Z,12.70
2018-11-26T04:37:54.435Z,14.87
2018-11-26T04:40:22.651Z,13.93
2018-11-26T04:42:50.115Z,12.00
2018-11-26T04:45:17.582Z,14.43
2018-11-26T04:47:45.086Z,12.77
2018-11-26T04:50:13.311Z,13.80
2018-11-26T04:52:40.799Z,12.10
2018-11-26T04:55:08.277Z,12.97
2018-11-26T04:57:42.074Z,13.73
2018-11-26T05:00:04.404Z,13.17
2018-11-26T05:02:31.890Z,13.83
2018-11-26T05:04:59.486Z,16.20
2018-11-26T05:07:26.951Z,12.60
2018-11-26T05:09:55.184Z,14.50
2018-11-26T05:12:22.757Z,14.57
2018-11-26T05:14:50.326Z,13.37
2018-11-26T05:17:18.563Z,14.63
2018-11-26T05:19:46.058Z,14.33
2018-11-26T05:22:13.533Z,16.03
2018-11-26T05:24:41.092Z,14.60
2018-11-26T05:27:08.656Z,13.00
2018-11-26T05:29:36.221Z,14.03
2018-11-26T05:32:03.695Z,14.00
2018-11-26T05:34:31.920Z,13.67
2018-11-26T05:36:59.383Z,14.43
2018-11-26T05:39:26.849Z,14.83
2018-11-26T05:41:54.315Z,14.90
2018-11-26T05:44:21.864Z,14.07
2018-11-26T05:46:49.279Z,14.63
2018-11-26T05:49:16.959Z,13.67
2018-11-26T05:51:44.408Z,14.80
2018-11-26T05:54:11.965Z,15.03
2018-11-26T05:56:39.539Z,14.50
2018-11-26T05:59:07.090Z,15.33
2018-11-26T06:01:34.570Z,13.83
2018-11-26T06:04:02.020Z,13.93
2018-11-26T06:06:29.488Z,14.73
2018-11-26T06:08:56.980Z,14.07
2018-11-26T06:11:24.461Z,14.40
2018-11-26T06:13:51.917Z,13.90
2018-11-26T06:16:19.384Z,14.97
2018-11-26T06:18:46.876Z,14.97
2018-11-26T06:21:14.335Z,15.10
2018-11-26T06:23:41.925Z,12.87
2018-11-26T06:26:09.484Z,15.87
2018-11-26T06:28:37.709Z,15.17
2018-11-26T06:31:05.172Z,14.63
2018-11-26T06:33:32.624Z,15.00
2018-11-26T06:36:00.125Z,15.30
2018-11-26T06:38:27.582Z,12.40
2018-11-26T06:40:55.051Z,15.97
2018-11-26T06:43:22.632Z,14.97
2018-11-26T06:45:50.096Z,15.20
2018-11-26T06:48:17.547Z,14.07
2018-11-26T06:50:45.069Z,15.00
2018-11-26T06:53:12.541Z,14.02
2018-11-26T06:55:40.009Z,14.57
2018-11-26T06:58:07.467Z,14.37
2018-11-26T07:00:34.927Z,15.60
2018-11-26T07:03:02.402Z,14.87
2018-11-26T07:05:29.883Z,14.77
2018-11-26T07:07:57.368Z,14.33
2018-11-26T07:10:24.818Z,14.90
2018-11-26T07:12:52.374Z,15.27
2018-11-26T07:15:19.830Z,15.93
2018-11-26T07:17:47.302Z,13.97
2018-11-26T07:20:14.868Z,16.47
2018-11-26T07:22:42.329Z,14.10
2018-11-26T07:25:09.889Z,16.03
2018-11-26T07:27:37.357Z,14.70
2018-11-26T07:30:04.830Z,14.97
2018-11-26T07:32:32.293Z,14.37
2018-11-26T07:34:59.843Z,14.67
2018-11-26T07:37:27.405Z,13.57
2018-11-26T07:39:54.863Z,14.07
2018-11-26T07:42:23.095Z,15.00
2018-11-26T07:44:50.572Z,14.60
2018-11-26T07:47:18.050Z,14.93
2018-11-26T07:49:45.513Z,14.33
2018-11-26T07:52:12.986Z,14.20
2018-11-26T07:54:41.072Z,15.03
2018-11-26T07:57:09.344Z,15.37
2018-11-26T07:59:36.820Z,14.90
2018-11-26T08:02:04.281Z,15.30
2018-11-26T08:04:33.262Z,14.23
2018-11-26T08:07:00.826Z,15.33
2018-11-26T08:09:28.292Z,14.43
2018-11-26T08:11:55.762Z,13.07
2018-11-26T08:14:23.231Z,15.30
2018-11-26T08:16:50.688Z,14.73
2018-11-26T08:19:19.673Z,13.47
2018-11-26T08:21:47.240Z,14.57
2018-11-26T08:24:14.696Z,14.23
2018-11-26T08:26:42.936Z,14.60
2018-11-26T08:29:10.402Z,14.30
2018-11-26T08:31:37.899Z,15.37
2018-11-26T08:34:05.375Z,15.67
2018-11-26T08:36:32.828Z,17.13
2018-11-26T08:39:00.299Z,15.03
2018-11-26T08:41:28.549Z,15.07
2018-11-26T08:43:56.013Z,15.73
2018-11-26T08:46:23.478Z,15.33
2018-11-26T08:48:50.939Z,15.10
2018-11-26T08:51:18.404Z,14.20
2018-11-26T08:53:45.882Z,16.40
2018-11-26T08:56:13.344Z,14.70
2018-11-26T08:58:42.388Z,16.07
2018-11-26T09:01:09.853Z,16.63
2018-11-26T09:03:37.320Z,13.87
2018-11-26T09:06:04.790Z,15.27
2018-11-26T09:08:32.284Z,14.60
2018-11-26T09:10:59.856Z,15.03
2018-11-26T09:13:28.834Z,15.20
2018-11-26T09:15:56.297Z,13.77
2018-11-26T09:18:23.769Z,13.07
2018-11-26T09:20:51.222Z,14.77
2018-11-26T09:23:18.682Z,14.67
2018-11-26T09:25:46.148Z,14.90
2018-11-26T09:28:14.439Z,16.10
2018-11-26T09:30:41.919Z,14.70
2018-11-26T09:33:10.485Z,12.83
2018-11-26T09:35:37.940Z,14.50
2018-11-26T09:38:05.510Z,14.93
2018-11-26T09:40:33.066Z,13.70
2018-11-26T09:43:00.541Z,13.67
2018-11-26T09:45:28.817Z,14.23
2018-11-26T09:47:56.277Z,14.53
2018-11-26T09:50:24.037Z,15.00
2018-11-26T09:52:51.497Z,15.53
2018-11-26T09:55:18.954Z,13.63
2018-11-26T09:57:46.533Z,14.77
2018-11-26T10:00:13.986Z,13.60
2018-11-26T10:02:41.563Z,14.93
2018-11-26T10:05:09.117Z,14.60
2018-11-26T10:07:36.591Z,15.27
2018-11-26T10:10:04.877Z,13.50
2018-11-26T10:12:32.428Z,13.70
2018-11-26T10:14:59.899Z,15.17
2018-11-26T10:17:27.364Z,14.60
2018-11-26T10:19:54.821Z,14.03
2018-11-26T10:22:22.301Z,14.20
2018-11-26T10:24:50.537Z,14.70
2018-11-26T10:27:17.998Z,13.57
2018-11-26T10:29:45.472Z,15.13
2018-11-26T10:32:13.037Z,14.47
2018-11-26T10:34:40.503Z,12.93
2018-11-26T10:37:09.498Z,14.17
2018-11-26T10:39:36.961Z,14.93
2018-11-26T10:42:04.517Z,16.13
2018-11-26T10:44:32.074Z,14.63
2018-11-26T10:46:59.546Z,14.60
2018-11-26T10:49:27.116Z,13.27
2018-11-26T10:51:54.679Z,15.70
2018-11-26T10:54:22.145Z,18.00
2018-11-26T10:56:49.629Z,13.80
2018-11-26T10:59:17.868Z,15.30
2018-11-26T11:01:45.320Z,14.23
2018-11-26T11:04:12.790Z,14.40
2018-11-26T11:06:40.264Z,13.43
2018-11-26T11:09:07.831Z,13.00
2018-11-26T11:11:35.290Z,13.40
2018-11-26T11:14:02.756Z,12.83
2018-11-26T11:16:30.519Z,12.60
2018-11-26T11:18:58.091Z,13.73
2018-11-26T11:21:25.546Z,14.07
2018-11-26T11:23:53.016Z,13.37
2018-11-26T11:26:20.477Z,13.23
2018-11-26T11:28:47.942Z,12.20
2018-11-26T11:31:15.493Z,12.10
2018-11-26T11:33:43.067Z,13.60
2018-11-26T11:36:10.522Z,14.18
2018-11-26T11:38:38.005Z,12.90
2018-11-26T11:41:05.474Z,12.57
2018-11-26T11:43:33.710Z,12.47
2018-11-26T11:46:01.179Z,12.90
2018-11-26T11:48:28.646Z,12.73
2018-11-26T11:50:56.364Z,12.40
2018-11-26T11:53:23.818Z,11.53
2018-11-26T11:55:52.929Z,14.00
2018-11-26T11:58:21.049Z,12.00
2018-11-26T12:00:48.507Z,12.77
2018-11-26T12:03:15.959Z,12.17
2018-11-26T12:05:43.430Z,11.50
2018-11-26T12:08:10.904Z,12.87
2018-11-26T12:10:38.373Z,12.00
2018-11-26T12:13:06.602Z,12.37
2018-11-26T12:15:34.118Z,12.60
2018-11-26T12:18:04.022Z,12.53
2018-11-26T12:20:31.586Z,12.10
2018-11-26T12:22:59.051Z,12.97
2018-11-26T12:25:27.293Z,12.70
2018-11-26T12:27:54.785Z,10.17
2018-11-26T12:30:22.260Z,12.53
2018-11-26T12:32:49.735Z,13.27
2018-11-26T12:35:17.983Z,13.43
2018-11-26T12:37:45.454Z,12.37
2018-11-26T12:40:13.020Z,12.47
2018-11-26T12:42:40.493Z,12.47
2018-11-26T12:45:07.962Z,13.33
2018-11-26T12:47:35.435Z,11.43
2018-11-26T12:50:04.612Z,13.00
2018-11-26T12:52:32.844Z,11.93
2018-11-26T12:55:00.354Z,13.03
2018-11-26T12:57:27.832Z,12.57
2018-11-26T12:59:55.297Z,11.47
2018-11-26T13:02:23.561Z,12.67
2018-11-26T13:04:51.796Z,10.80
2018-11-26T13:07:19.257Z,12.27
2018-11-26T13:09:46.761Z,11.37
2018-11-26T13:12:14.244Z,12.63
2018-11-26T13:14:42.506Z,12.47
2018-11-26T13:17:10.011Z,12.73
2018-11-26T13:19:37.484Z,12.17
2018-11-26T13:22:04.960Z,15.47
2018-11-26T13:24:32.427Z,12.87
2018-11-26T13:26:59.918Z,12.93
2018-11-26T13:29:27.400Z,11.43
2018-11-26T13:31:54.886Z,11.83
2018-11-26T13:34:22.358Z,12.67
2018-11-26T13:36:49.885Z,12.83
2018-11-26T13:39:17.423Z,11.93
2018-11-26T13:41:44.894Z,13.53
2018-11-26T13:44:12.459Z,12.50
2018-11-26T13:46:39.950Z,12.83
2018-11-26T13:49:07.475Z,11.60
2018-11-26T13:51:34.945Z,13.33
2018-11-26T13:54:02.429Z,13.10
2018-11-26T13:56:30.663Z,13.07
2018-11-26T13:58:58.146Z,14.23
2018-11-26T14:01:25.619Z,13.73
2018-11-26T14:03:53.087Z,16.20
2018-11-26T14:06:21.330Z,15.80
2018-11-26T14:08:48.813Z,16.40
2018-11-26T14:11:16.280Z,15.47
2018-11-26T14:13:43.770Z,14.87
2018-11-26T14:16:12.011Z,14.13
2018-11-26T14:18:39.491Z,12.83
2018-11-26T14:21:07.039Z,13.40
2018-11-26T14:23:34.506Z,11.37
2018-11-26T14:26:02.054Z,11.53
2018-11-26T14:28:29.531Z,11.17
2018-11-26T14:30:56.998Z,12.50
2018-11-26T14:33:24.557Z,11.33
2018-11-26T14:35:52.774Z,11.20
2018-11-26T14:38:20.290Z,11.70
2018-11-26T14:40:47.771Z,12.07
2018-11-26T14:43:15.317Z,12.40
2018-11-26T14:45:42.781Z,11.70
2018-11-26T14:48:10.259Z,10.60
2018-11-26T14:50:37.739Z,10.83
2018-11-26T14:53:05.998Z,11.43
2018-11-26T14:55:33.463Z,11.33
2018-11-26T14:58:01.773Z,11.97
2018-11-26T15:00:29.997Z,12.73
2018-11-26T15:02:57.482Z,10.17
2018-11-26T15:05:24.933Z,11.50
2018-11-26T15:07:52.406Z,10.33
2018-11-26T15:10:19.954Z,9.37
2018-11-26T15:12:47.407Z,9.57
2018-11-26T15:15:14.977Z,10.47
2018-11-26T15:17:42.547Z,10.10
2018-11-26T15:20:10.008Z,11.23
2018-11-26T15:22:37.471Z,10.77
2018-11-26T15:25:05.701Z,9.83
2018-11-26T15:27:33.173Z,11.23
2018-11-26T15:30:00.676Z,10.77
2018-11-26T15:32:28.230Z,9.77
2018-11-26T15:34:56.486Z,10.00
2018-11-26T15:37:24.320Z,11.67
2018-11-26T15:39:51.759Z,10.60
2018-11-26T15:42:19.305Z,10.07
2018-11-26T15:44:46.878Z,10.43
2018-11-26T15:47:15.114Z,10.88
2018-11-26T15:49:42.628Z,10.57
2018-11-26T15:52:10.109Z,10.17
2018-11-26T15:54:38.382Z,9.40
2018-11-26T15:57:06.652Z,10.40
2018-11-26T15:59:34.138Z,10.17
2018-11-26T16:02:01.655Z,9.77
2018-11-26T16:04:29.392Z,9.80
2018-11-26T16:06:56.847Z,10.23
2018-11-26T16:09:24.314Z,11.23
2018-11-26T16:11:51.798Z,10.33
2018-11-26T16:14:19.280Z,10.43
2018-11-26T16:16:46.749Z,9.13
2018-11-26T16:19:14.303Z,11.13
2018-11-26T16:21:41.863Z,9.87
2018-11-26T16:24:09.433Z,10.77
2018-11-26T16:26:36.886Z,10.77
2018-11-26T16:29:04.450Z,10.13
2018-11-26T16:31:31.947Z,11.77
2018-11-26T16:34:00.177Z,11.40
2018-11-26T16:36:27.657Z,12.57
2018-11-26T16:38:55.123Z,11.43
2018-11-26T16:41:22.694Z,10.43
2018-11-26T16:43:50.177Z,11.33
2018-11-26T16:46:18.437Z,11.53
2018-11-26T16:48:46.669Z,9.97
2018-11-26T16:51:14.162Z,9.70
2018-11-26T16:53:41.666Z,11.47
2018-11-26T16:56:09.885Z,10.70
2018-11-26T16:58:37.476Z,10.73
2018-11-26T17:01:04.950Z,11.53
2018-11-26T17:03:33.195Z,12.37
2018-11-26T17:06:00.682Z,10.97
2018-11-26T17:08:28.953Z,12.50
2018-11-26T17:10:56.427Z,11.70
2018-11-26T17:13:23.907Z,10.70
2018-11-26T17:15:52.125Z,9.90
2018-11-26T17:18:19.615Z,11.03
2018-11-26T17:20:47.089Z,11.93
2018-11-26T17:23:14.563Z,12.37
2018-11-26T17:25:42.926Z,11.00
2018-11-26T17:28:10.497Z,10.97
2018-11-26T17:30:37.967Z,11.07
2018-11-26T17:33:05.519Z,11.50
2018-11-26T17:35:32.984Z,11.33
2018-11-26T17:38:00.540Z,10.13
2018-11-26T17:40:28.013Z,11.40
2018-11-26T17:42:56.985Z,11.90
2018-11-26T17:45:24.446Z,10.43
2018-11-26T17:47:51.923Z,10.83
2018-11-26T17:50:19.384Z,11.73
2018-11-26T17:52:46.850Z,11.33
2018-11-26T17:55:14.318Z,11.37
2018-11-26T17:57:41.789Z,11.20
2018-11-26T18:00:10.022Z,10.80
2018-11-26T18:02:37.526Z,10.97
2018-11-26T18:05:05.071Z,11.83
2018-11-26T18:07:33.334Z,10.90
2018-11-26T18:10:00.822Z,11.57
2018-11-26T18:12:28.299Z,11.50
2018-11-26T18:14:56.864Z,12.30
2018-11-26T18:17:24.435Z,12.20
2018-11-26T18:19:51.901Z,11.97
2018-11-26T18:22:19.403Z,10.90
2018-11-26T18:24:46.853Z,10.90
2018-11-26T18:27:15.090Z,11.77
2018-11-26T18:29:42.589Z,12.53
2018-11-26T18:32:10.826Z,12.37
2018-11-26T18:34:38.306Z,11.30
2018-11-26T18:37:05.777Z,11.30
2018-11-26T18:39:33.339Z,11.90
2018-11-26T18:42:02.425Z,11.00
2018-11-26T18:44:29.884Z,11.43
2018-11-26T18:46:57.344Z,12.97
2018-11-26T18:49:25.779Z,11.43
2018-11-26T18:51:53.246Z,11.03
2018-11-26T18:54:20.732Z,11.47
2018-11-26T18:56:48.190Z,11.77
2018-11-26T18:59:15.649Z,10.63
2018-11-26T19:01:43.125Z,11.80
2018-11-26T19:04:10.597Z,11.00
2018-11-26T19:06:38.060Z,11.10
2018-11-26T19:09:05.630Z,11.47
2018-11-26T19:11:33.100Z,10.60
2018-11-26T19:14:00.653Z,10.93
2018-11-26T19:16:28.118Z,11.63
2018-11-26T19:18:55.589Z,11.77
2018-11-26T19:21:23.351Z,11.37
2018-11-26T19:23:50.914Z,11.47
2018-11-26T19:26:18.377Z,11.13
2018-11-26T19:28:47.369Z,10.90
2018-11-26T19:31:16.387Z,11.33
2018-11-26T19:33:43.875Z,9.73
2018-11-26T19:36:11.385Z,10.60
2018-11-26T19:38:38.954Z,11.30
2018-11-26T19:41:07.233Z,11.83
2018-11-26T19:43:34.706Z,11.73
2018-11-26T19:46:03.902Z,10.27
2018-11-26T19:48:32.152Z,11.93
2018-11-26T19:50:59.615Z,10.73
2018-11-26T19:53:27.098Z,12.03
2018-11-26T19:55:55.382Z,10.27
2018-11-26T19:58:23.301Z,11.02
2018-11-26T20:00:50.777Z,11.17
2018-11-26T20:03:18.283Z,10.33
2018-11-26T20:05:46.552Z,10.67
2018-11-26T20:08:14.081Z,10.00
2018-11-26T20:10:41.533Z,11.17
2018-11-26T20:13:09.774Z,11.03
2018-11-26T20:15:37.250Z,9.73
2018-11-26T20:18:05.493Z,10.30
2018-11-26T20:20:32.958Z,10.17
2018-11-26T20:23:00.529Z,10.33
2018-11-26T20:25:27.994Z,10.33
2018-11-26T20:27:56.075Z,10.90
2018-11-26T20:30:23.703Z,9.93
2018-11-26T20:32:51.190Z,10.67
2018-11-26T20:35:19.525Z,10.00
2018-11-26T20:37:46.982Z,9.13
2018-11-26T20:40:14.819Z,9.80
2018-11-26T20:42:42.279Z,10.30
2018-11-26T20:45:10.525Z,9.15
2018-11-26T20:47:38.013Z,9.83
2018-11-26T20:50:05.582Z,10.00
2018-11-26T20:52:33.044Z,9.10
2018-11-26T20:55:00.511Z,9.80
2018-11-26T20:57:27.976Z,10.67
2018-11-26T20:59:55.528Z,8.93
2018-11-26T21:02:23.001Z,9.03
2018-11-26T21:04:51.235Z,9.40
2018-11-26T21:07:18.718Z,9.37
2018-11-26T21:09:46.186Z,9.93
2018-11-26T21:12:13.650Z,8.93
2018-11-26T21:14:41.119Z,8.53
2018-11-26T21:17:09.352Z,9.10
2018-11-26T21:19:36.808Z,9.57
2018-11-26T21:22:04.291Z,9.50
2018-11-26T21:24:31.754Z,8.97
2018-11-26T21:26:59.229Z,8.43
2018-11-26T21:29:26.686Z,9.70
2018-11-26T21:31:54.156Z,9.70
2018-11-26T21:34:21.637Z,9.70
2018-11-26T21:36:49.861Z,9.13
2018-11-26T21:39:17.345Z,9.00
2018-11-26T21:41:44.805Z,9.93
2018-11-26T21:44:12.272Z,9.20
2018-11-26T21:46:39.729Z,8.93
2018-11-26T21:49:07.200Z,9.37
2018-11-26T21:51:34.668Z,9.53
2018-11-26T21:54:02.148Z,9.90
2018-11-26T21:56:30.386Z,8.77
2018-11-26T21:58:57.873Z,9.17
2018-11-26T22:01:25.340Z,9.93
2018-11-26T22:03:52.954Z,8.63
2018-11-26T22:06:21.124Z,8.70
2018-11-26T22:08:48.539Z,9.33
2018-11-26T22:11:16.095Z,8.73
2018-11-26T22:13:43.554Z,9.33
2018-11-26T22:16:11.018Z,9.20
2018-11-26T22:18:38.496Z,8.07
2018-11-26T22:21:05.948Z,10.43
2018-11-26T22:23:33.415Z,8.83
2018-11-26T22:26:00.878Z,8.10
2018-11-26T22:28:28.339Z,8.03
2018-11-26T22:30:55.798Z,10.17
2018-11-26T22:33:23.292Z,9.10
2018-11-26T22:35:51.533Z,9.33
2018-11-26T22:38:18.992Z,9.33
2018-11-26T22:40:49.134Z,9.40
2018-11-26T22:43:16.682Z,8.17
2018-11-26T22:45:44.235Z,8.00
2018-11-26T22:48:12.018Z,9.77
2018-11-26T22:50:39.506Z,7.77
2018-11-26T22:53:07.741Z,8.93
2018-11-26T22:55:35.213Z,9.50
2018-11-26T22:58:03.619Z,8.73
2018-11-26T23:00:31.088Z,8.70
2018-11-26T23:02:59.357Z,8.83
2018-11-26T23:05:26.917Z,8.60
2018-11-26T23:07:55.137Z,8.13
2018-11-26T23:12:47.890Z,8.30
2018-11-26T23:15:16.154Z,8.47
2018-11-26T23:17:43.703Z,9.47
2018-11-26T23:20:11.157Z,8.00
2018-11-26T23:22:39.269Z,8.47
2018-11-26T23:25:07.526Z,8.37
2018-11-26T23:27:35.088Z,8.87
2018-11-26T23:30:02.558Z,8.90
2018-11-26T23:32:30.010Z,8.23
2018-11-26T23:34:57.477Z,7.90
2018-11-26T23:37:25.033Z,8.57
2018-11-26T23:39:52.494Z,8.57
2018-11-26T23:42:19.971Z,7.93
2018-11-26T23:44:47.433Z,9.17
2018-11-26T23:47:14.982Z,9.43
2018-11-26T23:49:42.750Z,9.13
2018-11-26T23:52:10.218Z,8.60
2018-11-26T23:54:39.177Z,7.80
2018-11-26T23:57:06.643Z,8.73
2018-11-26T23:59:34.118Z,9.30
